sensor_id;sensor_type;location;lat;lon;timestamp;temperature;humidity
9033;DHT22;4551;53.164;8.210;2023-03-01T00:01:46;1.60;99.90
9033;DHT22;4551;53.164;8.210;2023-03-01T00:04:14;1.60;99.90
9033;DHT22;4551;53.164;8.210;2023-03-01T00:06:43;1.60;99.90
9033;DHT22;4551;53.164;8.210;2023-03-01T00:09:12;1.50;99.90
9033;DHT22;4551;53.164;8.210;2023-03-01T00:11:40;1.50;99.90
9033;DHT22;4551;53.164;8.210;2023-03-01T00:14:10;1.50;99.90
9033;DHT22;4551;53.164;8.210;2023-03-01T00:16:39;1.40;99.90
9033;DHT22;4551;53.164;8.210;2023-03-01T00:19:07;1.40;99.90
9033;DHT22;4551;53.164;8.210;2023-03-01T00:21:37;1.40;99.90
9033;DHT22;4551;53.164;8.210;2023-03-01T00:24:06;1.30;99.90
9033;DHT22;4551;53.164;8.210;2023-03-01T00:26:34;1.40;99.90
9033;DHT22;4551;53.164;8.210;2023-03-01T00:29:02;1.30;99.90
9033;DHT22;4551;53.164;8.210;2023-03-01T00:31:31;1.30;99.90
9033;DHT22;4551;53.164;8.210;2023-03-01T00:34:00;1.30;99.90
9033;DHT22;4551;53.164;8.210;2023-03-01T00:36:29;1.20;99.90
9033;DHT22;4551;53.164;8.210;2023-03-01T00:38:58;1.20;99.90
9033;DHT22;4551;53.164;8.210;2023-03-01T00:41:27;1.20;99.90
9033;DHT22;4551;53.164;8.210;2023-03-01T00:43:55;1.20;99.90
9033;DHT22;4551;53.164;8.210;2023-03-01T00:46:24;1.10;99.90
9033;DHT22;4551;53.164;8.210;2023-03-01T00:48:53;1.10;99.90
9033;DHT22;4551;53.164;8.210;2023-03-01T00:51:24;1.10;99.90
9033;DHT22;4551;53.164;8.210;2023-03-01T00:53:54;1.10;99.90
9033;DHT22;4551;53.164;8.210;2023-03-01T00:56:25;1.00;99.90
9033;DHT22;4551;53.164;8.210;2023-03-01T00:58:54;1.00;99.90
9033;DHT22;4551;53.164;8.210;2023-03-01T01:01:23;1.00;99.90
9033;DHT22;4551;53.164;8.210;2023-03-01T01:03:54;1.00;99.90
9033;DHT22;4551;53.164;8.210;2023-03-01T01:06:24;1.00;99.90
9033;DHT22;4551;53.164;8.210;2023-03-01T01:08:52;0.90;99.90
9033;DHT22;4551;53.164;8.210;2023-03-01T01:11:21;0.90;99.90
9033;DHT22;4551;53.164;8.210;2023-03-01T01:13:50;0.90;99.90
9033;DHT22;4551;53.164;8.210;2023-03-01T01:16:20;0.80;99.90
9033;DHT22;4551;53.164;8.210;2023-03-01T01:18:48;0.80;99.90
9033;DHT22;4551;53.164;8.210;2023-03-01T01:21:18;0.80;99.90
9033;DHT22;4551;53.164;8.210;2023-03-01T01:23:48;0.80;99.90
9033;DHT22;4551;53.164;8.210;2023-03-01T01:26:17;0.70;99.90
9033;DHT22;4551;53.164;8.210;2023-03-01T01:28:47;0.70;99.90
9033;DHT22;4551;53.164;8.210;2023-03-01T01:31:15;0.70;99.90
9033;DHT22;4551;53.164;8.210;2023-03-01T01:33:47;0.70;99.90
9033;DHT22;4551;53.164;8.210;2023-03-01T01:36:15;0.70;99.90
9033;DHT22;4551;53.164;8.210;2023-03-01T01:38:43;0.70;99.90
9033;DHT22;4551;53.164;8.210;2023-03-01T01:41:13;0.60;99.90
9033;DHT22;4551;53.164;8.210;2023-03-01T01:43:43;0.60;99.90
9033;DHT22;4551;53.164;8.210;2023-03-01T01:46:15;0.60;99.90
9033;DHT22;4551;53.164;8.210;2023-03-01T01:48:49;0.50;99.90
9033;DHT22;4551;53.164;8.210;2023-03-01T01:51:27;0.50;99.90
9033;DHT22;4551;53.164;8.210;2023-03-01T01:53:58;0.50;99.90
9033;DHT22;4551;53.164;8.210;2023-03-01T01:56:30;0.50;99.90
9033;DHT22;4551;53.164;8.210;2023-03-01T01:59:00;0.50;99.90
9033;DHT22;4551;53.164;8.210;2023-03-01T02:01:31;0.50;99.90
9033;DHT22;4551;53.164;8.210;2023-03-01T02:04:00;0.40;99.90
9033;DHT22;4551;53.164;8.210;2023-03-01T02:06:31;0.40;99.90
9033;DHT22;4551;53.164;8.210;2023-03-01T02:09:05;0.40;99.90
9033;DHT22;4551;53.164;8.210;2023-03-01T02:11:35;0.40;99.90
9033;DHT22;4551;53.164;8.210;2023-03-01T02:14:04;0.40;99.90
9033;DHT22;4551;53.164;8.210;2023-03-01T02:16:32;0.30;99.90
9033;DHT22;4551;53.164;8.210;2023-03-01T02:19:02;0.30;99.90
9033;DHT22;4551;53.164;8.210;2023-03-01T02:21:35;0.30;99.90
9033;DHT22;4551;53.164;8.210;2023-03-01T02:24:06;0.30;99.90
9033;DHT22;4551;53.164;8.210;2023-03-01T02:26:40;0.30;99.90
9033;DHT22;4551;53.164;8.210;2023-03-01T02:29:10;0.30;99.90
9033;DHT22;4551;53.164;8.210;2023-03-01T02:31:39;0.20;99.90
9033;DHT22;4551;53.164;8.210;2023-03-01T02:34:09;0.20;99.90
9033;DHT22;4551;53.164;8.210;2023-03-01T02:36:39;0.20;99.90
9033;DHT22;4551;53.164;8.210;2023-03-01T02:39:08;0.20;99.90
9033;DHT22;4551;53.164;8.210;2023-03-01T02:41:41;0.10;99.90
9033;DHT22;4551;53.164;8.210;2023-03-01T02:44:11;0.10;99.90
9033;DHT22;4551;53.164;8.210;2023-03-01T02:46:44;0.10;99.90
9033;DHT22;4551;53.164;8.210;2023-03-01T02:49:21;0.00;99.90
9033;DHT22;4551;53.164;8.210;2023-03-01T02:51:55;0.00;99.90
9033;DHT22;4551;53.164;8.210;2023-03-01T02:54:25;0.00;99.90
9033;DHT22;4551;53.164;8.210;2023-03-01T02:56:54;0.00;99.90
9033;DHT22;4551;53.164;8.210;2023-03-01T02:59:24;0.00;99.90
9033;DHT22;4551;53.164;8.210;2023-03-01T03:01:54;-0.10;99.90
9033;DHT22;4551;53.164;8.210;2023-03-01T03:04:28;-0.10;99.90
9033;DHT22;4551;53.164;8.210;2023-03-01T03:06:56;-0.10;99.90
9033;DHT22;4551;53.164;8.210;2023-03-01T03:09:24;-0.10;99.90
9033;DHT22;4551;53.164;8.210;2023-03-01T03:11:52;-0.10;99.90
9033;DHT22;4551;53.164;8.210;2023-03-01T03:14:20;-0.10;99.90
9033;DHT22;4551;53.164;8.210;2023-03-01T03:16:50;-0.10;99.90
9033;DHT22;4551;53.164;8.210;2023-03-01T03:19:18;-0.20;99.90
9033;DHT22;4551;53.164;8.210;2023-03-01T03:21:46;-0.20;99.90
9033;DHT22;4551;53.164;8.210;2023-03-01T03:24:14;-0.20;99.90
9033;DHT22;4551;53.164;8.210;2023-03-01T03:26:42;-0.30;99.90
9033;DHT22;4551;53.164;8.210;2023-03-01T03:29:10;-0.30;99.90
9033;DHT22;4551;53.164;8.210;2023-03-01T03:31:38;-0.30;99.90
9033;DHT22;4551;53.164;8.210;2023-03-01T03:34:07;-0.30;99.90
9033;DHT22;4551;53.164;8.210;2023-03-01T03:36:37;-0.30;99.90
9033;DHT22;4551;53.164;8.210;2023-03-01T03:39:05;-0.30;99.90
9033;DHT22;4551;53.164;8.210;2023-03-01T03:41:34;-0.40;99.90
9033;DHT22;4551;53.164;8.210;2023-03-01T03:44:02;-0.40;99.90
9033;DHT22;4551;53.164;8.210;2023-03-01T03:46:30;-0.40;99.90
9033;DHT22;4551;53.164;8.210;2023-03-01T03:48:58;-0.40;99.90
9033;DHT22;4551;53.164;8.210;2023-03-01T03:51:28;-0.40;99.90
9033;DHT22;4551;53.164;8.210;2023-03-01T03:53:56;-0.40;99.90
9033;DHT22;4551;53.164;8.210;2023-03-01T03:56:24;-0.40;99.90
9033;DHT22;4551;53.164;8.210;2023-03-01T03:58:54;-0.40;99.90
9033;DHT22;4551;53.164;8.210;2023-03-01T04:01:24;-0.40;99.90
9033;DHT22;4551;53.164;8.210;2023-03-01T04:03:55;-0.50;99.90
9033;DHT22;4551;53.164;8.210;2023-03-01T04:06:24;-0.50;99.90
9033;DHT22;4551;53.164;8.210;2023-03-01T04:08:53;-0.50;99.90
9033;DHT22;4551;53.164;8.210;2023-03-01T04:11:26;-0.50;99.90
9033;DHT22;4551;53.164;8.210;2023-03-01T04:13:54;-0.50;99.90
9033;DHT22;4551;53.164;8.210;2023-03-01T04:16:23;-0.50;99.90
9033;DHT22;4551;53.164;8.210;2023-03-01T04:18:51;-0.50;99.90
9033;DHT22;4551;53.164;8.210;2023-03-01T04:21:22;-0.60;99.90
9033;DHT22;4551;53.164;8.210;2023-03-01T04:23:50;-0.50;99.90
9033;DHT22;4551;53.164;8.210;2023-03-01T04:26:20;-0.70;99.90
9033;DHT22;4551;53.164;8.210;2023-03-01T04:28:48;-0.70;99.90
9033;DHT22;4551;53.164;8.210;2023-03-01T04:31:19;-0.70;99.90
9033;DHT22;4551;53.164;8.210;2023-03-01T04:33:49;-0.70;99.90
9033;DHT22;4551;53.164;8.210;2023-03-01T04:36:19;-0.70;99.90
9033;DHT22;4551;53.164;8.210;2023-03-01T04:38:47;-0.80;99.90
9033;DHT22;4551;53.164;8.210;2023-03-01T04:41:16;-0.80;99.90
9033;DHT22;4551;53.164;8.210;2023-03-01T04:43:45;-0.80;99.90
9033;DHT22;4551;53.164;8.210;2023-03-01T04:46:15;-0.80;99.90
9033;DHT22;4551;53.164;8.210;2023-03-01T04:48:43;-0.80;99.90
9033;DHT22;4551;53.164;8.210;2023-03-01T04:51:11;-0.80;99.90
9033;DHT22;4551;53.164;8.210;2023-03-01T04:53:40;-0.80;99.90
9033;DHT22;4551;53.164;8.210;2023-03-01T04:56:09;-0.80;99.90
9033;DHT22;4551;53.164;8.210;2023-03-01T04:58:37;-0.80;99.90
9033;DHT22;4551;53.164;8.210;2023-03-01T05:01:11;-0.80;99.90
9033;DHT22;4551;53.164;8.210;2023-03-01T05:03:44;-0.90;99.90
9033;DHT22;4551;53.164;8.210;2023-03-01T05:06:12;-0.90;99.90
9033;DHT22;4551;53.164;8.210;2023-03-01T05:08:40;-0.90;99.90
9033;DHT22;4551;53.164;8.210;2023-03-01T05:11:09;-0.90;99.90
9033;DHT22;4551;53.164;8.210;2023-03-01T05:13:38;-0.90;99.90
9033;DHT22;4551;53.164;8.210;2023-03-01T05:16:08;-1.00;99.90
9033;DHT22;4551;53.164;8.210;2023-03-01T05:18:39;-1.00;99.90
9033;DHT22;4551;53.164;8.210;2023-03-01T05:21:09;-1.00;99.90
9033;DHT22;4551;53.164;8.210;2023-03-01T05:23:37;-1.00;99.90
9033;DHT22;4551;53.164;8.210;2023-03-01T05:26:07;-1.10;99.90
9033;DHT22;4551;53.164;8.210;2023-03-01T05:28:52;-1.10;99.90
9033;DHT22;4551;53.164;8.210;2023-03-01T05:31:25;-1.10;99.90
9033;DHT22;4551;53.164;8.210;2023-03-01T05:33:55;-1.10;99.90
9033;DHT22;4551;53.164;8.210;2023-03-01T05:36:23;-1.10;99.90
9033;DHT22;4551;53.164;8.210;2023-03-01T05:38:59;-1.10;99.90
9033;DHT22;4551;53.164;8.210;2023-03-01T05:41:47;-1.10;99.90
9033;DHT22;4551;53.164;8.210;2023-03-01T05:44:16;-1.10;99.90
9033;DHT22;4551;53.164;8.210;2023-03-01T05:46:44;-1.10;99.90
9033;DHT22;4551;53.164;8.210;2023-03-01T05:49:13;-1.10;99.90
9033;DHT22;4551;53.164;8.210;2023-03-01T05:51:41;-1.10;99.90
9033;DHT22;4551;53.164;8.210;2023-03-01T05:54:13;-1.10;99.90
9033;DHT22;4551;53.164;8.210;2023-03-01T05:56:41;-1.10;99.90
9033;DHT22;4551;53.164;8.210;2023-03-01T05:59:08;-1.10;99.90
9033;DHT22;4551;53.164;8.210;2023-03-01T06:01:37;-1.10;99.90
9033;DHT22;4551;53.164;8.210;2023-03-01T06:04:07;-1.10;99.90
9033;DHT22;4551;53.164;8.210;2023-03-01T06:06:37;-1.10;99.90
9033;DHT22;4551;53.164;8.210;2023-03-01T06:09:06;-1.20;99.90
9033;DHT22;4551;53.164;8.210;2023-03-01T06:11:36;-1.20;99.90
9033;DHT22;4551;53.164;8.210;2023-03-01T06:14:05;-1.20;99.90
9033;DHT22;4551;53.164;8.210;2023-03-01T06:16:34;-1.20;99.90
9033;DHT22;4551;53.164;8.210;2023-03-01T06:19:02;-1.20;99.90
9033;DHT22;4551;53.164;8.210;2023-03-01T06:21:31;-1.20;99.90
9033;DHT22;4551;53.164;8.210;2023-03-01T06:24:00;-1.20;99.90
9033;DHT22;4551;53.164;8.210;2023-03-01T06:26:28;-1.20;99.90
9033;DHT22;4551;53.164;8.210;2023-03-01T06:28:57;-1.20;99.90
9033;DHT22;4551;53.164;8.210;2023-03-01T06:31:27;-1.20;99.90
9033;DHT22;4551;53.164;8.210;2023-03-01T06:33:56;-1.20;99.90
9033;DHT22;4551;53.164;8.210;2023-03-01T06:36:24;-1.20;99.90
9033;DHT22;4551;53.164;8.210;2023-03-01T06:38:52;-1.30;99.90
9033;DHT22;4551;53.164;8.210;2023-03-01T06:41:21;-1.30;99.90
9033;DHT22;4551;53.164;8.210;2023-03-01T06:43:49;-1.30;99.90
9033;DHT22;4551;53.164;8.210;2023-03-01T06:46:17;-1.20;99.90
9033;DHT22;4551;53.164;8.210;2023-03-01T06:48:45;-1.30;99.90
9033;DHT22;4551;53.164;8.210;2023-03-01T06:51:13;-1.30;99.90
9033;DHT22;4551;53.164;8.210;2023-03-01T06:53:41;-1.30;99.90
9033;DHT22;4551;53.164;8.210;2023-03-01T06:56:09;-1.20;99.90
9033;DHT22;4551;53.164;8.210;2023-03-01T06:58:39;-1.20;99.90
9033;DHT22;4551;53.164;8.210;2023-03-01T07:01:07;-1.10;99.90
9033;DHT22;4551;53.164;8.210;2023-03-01T07:03:35;-1.20;99.90
9033;DHT22;4551;53.164;8.210;2023-03-01T07:06:03;-1.20;99.90
9033;DHT22;4551;53.164;8.210;2023-03-01T07:08:31;-1.10;99.90
9033;DHT22;4551;53.164;8.210;2023-03-01T07:10:59;-1.10;99.90
9033;DHT22;4551;53.164;8.210;2023-03-01T07:13:29;-1.10;99.90
9033;DHT22;4551;53.164;8.210;2023-03-01T07:15:58;-1.10;99.90
9033;DHT22;4551;53.164;8.210;2023-03-01T07:18:26;-1.10;99.90
9033;DHT22;4551;53.164;8.210;2023-03-01T07:20:54;-1.00;99.90
9033;DHT22;4551;53.164;8.210;2023-03-01T07:23:22;-1.10;99.90
9033;DHT22;4551;53.164;8.210;2023-03-01T07:25:51;-1.00;99.90
9033;DHT22;4551;53.164;8.210;2023-03-01T07:28:22;-1.00;99.90
9033;DHT22;4551;53.164;8.210;2023-03-01T07:30:50;-0.90;99.90
9033;DHT22;4551;53.164;8.210;2023-03-01T07:33:19;-0.90;99.90
9033;DHT22;4551;53.164;8.210;2023-03-01T07:35:55;-0.80;99.90
9033;DHT22;4551;53.164;8.210;2023-03-01T07:38:24;-0.80;99.90
9033;DHT22;4551;53.164;8.210;2023-03-01T07:40:52;-0.80;99.90
9033;DHT22;4551;53.164;8.210;2023-03-01T07:43:20;-0.70;99.90
9033;DHT22;4551;53.164;8.210;2023-03-01T07:45:50;-0.70;99.90
9033;DHT22;4551;53.164;8.210;2023-03-01T07:48:20;-0.60;99.90
9033;DHT22;4551;53.164;8.210;2023-03-01T07:50:48;-0.60;99.90
9033;DHT22;4551;53.164;8.210;2023-03-01T07:53:16;-0.50;99.90
9033;DHT22;4551;53.164;8.210;2023-03-01T07:55:44;-0.50;99.90
9033;DHT22;4551;53.164;8.210;2023-03-01T07:58:12;-0.40;99.90
9033;DHT22;4551;53.164;8.210;2023-03-01T08:00:40;-0.40;99.90
9033;DHT22;4551;53.164;8.210;2023-03-01T08:03:08;-0.30;99.90
9033;DHT22;4551;53.164;8.210;2023-03-01T08:05:40;-0.30;99.90
9033;DHT22;4551;53.164;8.210;2023-03-01T08:08:08;-0.20;99.90
9033;DHT22;4551;53.164;8.210;2023-03-01T08:10:37;-0.20;99.90
9033;DHT22;4551;53.164;8.210;2023-03-01T08:13:05;-0.10;99.90
9033;DHT22;4551;53.164;8.210;2023-03-01T08:15:33;-0.10;99.90
9033;DHT22;4551;53.164;8.210;2023-03-01T08:18:01;0.00;99.90
9033;DHT22;4551;53.164;8.210;2023-03-01T08:20:29;0.10;99.90
9033;DHT22;4551;53.164;8.210;2023-03-01T08:22:58;0.10;99.90
9033;DHT22;4551;53.164;8.210;2023-03-01T08:25:26;0.20;99.90
9033;DHT22;4551;53.164;8.210;2023-03-01T08:27:54;0.20;99.90
9033;DHT22;4551;53.164;8.210;2023-03-01T08:30:25;0.30;99.90
9033;DHT22;4551;53.164;8.210;2023-03-01T08:32:53;0.30;99.90
9033;DHT22;4551;53.164;8.210;2023-03-01T08:35:21;0.40;99.90
9033;DHT22;4551;53.164;8.210;2023-03-01T08:37:50;0.40;99.90
9033;DHT22;4551;53.164;8.210;2023-03-01T08:40:19;0.50;99.90
9033;DHT22;4551;53.164;8.210;2023-03-01T08:42:47;0.50;99.90
9033;DHT22;4551;53.164;8.210;2023-03-01T08:45:18;0.60;99.90
9033;DHT22;4551;53.164;8.210;2023-03-01T08:47:46;0.60;99.90
9033;DHT22;4551;53.164;8.210;2023-03-01T08:50:15;0.70;99.90
9033;DHT22;4551;53.164;8.210;2023-03-01T08:52:43;0.70;99.90
9033;DHT22;4551;53.164;8.210;2023-03-01T08:55:11;0.80;99.90
9033;DHT22;4551;53.164;8.210;2023-03-01T08:57:43;0.90;99.90
9033;DHT22;4551;53.164;8.210;2023-03-01T09:00:12;0.90;99.90
9033;DHT22;4551;53.164;8.210;2023-03-01T09:02:41;1.00;99.90
9033;DHT22;4551;53.164;8.210;2023-03-01T09:05:12;1.00;99.90
9033;DHT22;4551;53.164;8.210;2023-03-01T09:07:40;1.10;99.90
9033;DHT22;4551;53.164;8.210;2023-03-01T09:10:08;1.10;99.90
9033;DHT22;4551;53.164;8.210;2023-03-01T09:12:37;1.20;99.90
9033;DHT22;4551;53.164;8.210;2023-03-01T09:15:10;1.20;99.90
9033;DHT22;4551;53.164;8.210;2023-03-01T09:17:38;1.30;99.90
9033;DHT22;4551;53.164;8.210;2023-03-01T09:20:09;1.40;99.90
9033;DHT22;4551;53.164;8.210;2023-03-01T09:22:37;1.50;99.90
9033;DHT22;4551;53.164;8.210;2023-03-01T09:25:06;1.60;99.90
9033;DHT22;4551;53.164;8.210;2023-03-01T09:27:34;1.60;99.90
9033;DHT22;4551;53.164;8.210;2023-03-01T09:30:02;1.70;99.90
9033;DHT22;4551;53.164;8.210;2023-03-01T09:32:32;1.80;99.90
9033;DHT22;4551;53.164;8.210;2023-03-01T09:35:00;1.80;99.90
9033;DHT22;4551;53.164;8.210;2023-03-01T09:37:37;1.90;99.90
9033;DHT22;4551;53.164;8.210;2023-03-01T09:40:07;2.00;99.90
9033;DHT22;4551;53.164;8.210;2023-03-01T09:42:51;2.00;99.90
9033;DHT22;4551;53.164;8.210;2023-03-01T09:45:28;2.00;99.90
9033;DHT22;4551;53.164;8.210;2023-03-01T09:47:58;2.10;99.90
9033;DHT22;4551;53.164;8.210;2023-03-01T09:50:28;2.20;99.90
9033;DHT22;4551;53.164;8.210;2023-03-01T09:53:00;2.30;99.90
9033;DHT22;4551;53.164;8.210;2023-03-01T09:55:30;2.30;99.90
9033;DHT22;4551;53.164;8.210;2023-03-01T09:57:59;2.40;99.90
9033;DHT22;4551;53.164;8.210;2023-03-01T10:00:30;2.50;99.90
9033;DHT22;4551;53.164;8.210;2023-03-01T10:03:06;2.60;99.90
9033;DHT22;4551;53.164;8.210;2023-03-01T10:05:40;2.60;99.90
9033;DHT22;4551;53.164;8.210;2023-03-01T10:10:52;2.80;99.90
9033;DHT22;4551;53.164;8.210;2023-03-01T10:13:21;2.90;99.90
9033;DHT22;4551;53.164;8.210;2023-03-01T10:15:52;2.90;99.90
9033;DHT22;4551;53.164;8.210;2023-03-01T10:18:24;3.00;99.90
9033;DHT22;4551;53.164;8.210;2023-03-01T10:20:57;3.10;99.90
9033;DHT22;4551;53.164;8.210;2023-03-01T10:23:27;3.20;99.90
9033;DHT22;4551;53.164;8.210;2023-03-01T10:25:59;3.30;99.90
9033;DHT22;4551;53.164;8.210;2023-03-01T10:28:31;3.40;99.90
9033;DHT22;4551;53.164;8.210;2023-03-01T10:31:04;3.50;99.90
9033;DHT22;4551;53.164;8.210;2023-03-01T10:33:38;3.60;99.90
9033;DHT22;4551;53.164;8.210;2023-03-01T10:36:07;3.60;99.90
9033;DHT22;4551;53.164;8.210;2023-03-01T10:38:46;3.80;99.90
9033;DHT22;4551;53.164;8.210;2023-03-01T10:41:15;3.90;99.90
9033;DHT22;4551;53.164;8.210;2023-03-01T10:43:43;4.00;99.90
9033;DHT22;4551;53.164;8.210;2023-03-01T10:46:22;4.00;99.90
9033;DHT22;4551;53.164;8.210;2023-03-01T10:51:39;4.20;99.90
9033;DHT22;4551;53.164;8.210;2023-03-01T10:54:14;4.30;99.90
9033;DHT22;4551;53.164;8.210;2023-03-01T10:56:47;4.40;99.90
9033;DHT22;4551;53.164;8.210;2023-03-01T10:59:21;4.50;99.90
9033;DHT22;4551;53.164;8.210;2023-03-01T11:02:00;4.60;99.90
9033;DHT22;4551;53.164;8.210;2023-03-01T11:04:37;4.70;99.90
9033;DHT22;4551;53.164;8.210;2023-03-01T11:07:08;4.80;99.90
9033;DHT22;4551;53.164;8.210;2023-03-01T11:09:39;4.90;99.90
9033;DHT22;4551;53.164;8.210;2023-03-01T11:12:12;5.00;99.90
9033;DHT22;4551;53.164;8.210;2023-03-01T11:14:46;5.10;99.90
9033;DHT22;4551;53.164;8.210;2023-03-01T11:17:15;5.20;99.90
9033;DHT22;4551;53.164;8.210;2023-03-01T11:19:45;5.20;99.90
9033;DHT22;4551;53.164;8.210;2023-03-01T11:22:30;5.30;99.90
9033;DHT22;4551;53.164;8.210;2023-03-01T11:24:59;5.40;99.90
9033;DHT22;4551;53.164;8.210;2023-03-01T11:27:36;5.50;99.90
9033;DHT22;4551;53.164;8.210;2023-03-01T11:30:07;5.60;99.90
9033;DHT22;4551;53.164;8.210;2023-03-01T11:32:42;5.80;99.90
9033;DHT22;4551;53.164;8.210;2023-03-01T11:35:15;5.90;99.90
9033;DHT22;4551;53.164;8.210;2023-03-01T11:37:53;6.00;99.90
9033;DHT22;4551;53.164;8.210;2023-03-01T11:40:24;6.00;99.90
9033;DHT22;4551;53.164;8.210;2023-03-01T11:42:59;6.10;99.90
9033;DHT22;4551;53.164;8.210;2023-03-01T11:45:28;6.30;99.90
9033;DHT22;4551;53.164;8.210;2023-03-01T11:50:44;6.50;99.90
9033;DHT22;4551;53.164;8.210;2023-03-01T11:53:20;6.60;99.90
9033;DHT22;4551;53.164;8.210;2023-03-01T11:55:55;6.60;99.90
9033;DHT22;4551;53.164;8.210;2023-03-01T11:58:27;6.70;99.90
9033;DHT22;4551;53.164;8.210;2023-03-01T12:01:07;6.80;99.90
9033;DHT22;4551;53.164;8.210;2023-03-01T12:03:42;6.80;99.90
9033;DHT22;4551;53.164;8.210;2023-03-01T12:09:06;7.10;99.90
9033;DHT22;4551;53.164;8.210;2023-03-01T12:11:42;7.20;99.90
9033;DHT22;4551;53.164;8.210;2023-03-01T12:14:18;7.30;99.90
9033;DHT22;4551;53.164;8.210;2023-03-01T12:17:03;7.30;99.90
9033;DHT22;4551;53.164;8.210;2023-03-01T12:19:38;7.30;99.90
9033;DHT22;4551;53.164;8.210;2023-03-01T12:22:17;7.40;99.90
9033;DHT22;4551;53.164;8.210;2023-03-01T12:24:56;7.50;99.90
9033;DHT22;4551;53.164;8.210;2023-03-01T12:30:16;7.70;99.90
9033;DHT22;4551;53.164;8.210;2023-03-01T12:32:54;7.90;99.90
9033;DHT22;4551;53.164;8.210;2023-03-01T12:35:36;8.10;99.90
9033;DHT22;4551;53.164;8.210;2023-03-01T12:38:10;8.30;99.90
9033;DHT22;4551;53.164;8.210;2023-03-01T12:40:50;8.50;99.90
9033;DHT22;4551;53.164;8.210;2023-03-01T12:43:22;8.70;99.90
9033;DHT22;4551;53.164;8.210;2023-03-01T12:46:00;8.90;99.90
9033;DHT22;4551;53.164;8.210;2023-03-01T12:48:35;9.20;99.90
9033;DHT22;4551;53.164;8.210;2023-03-01T12:51:05;9.40;99.90
9033;DHT22;4551;53.164;8.210;2023-03-01T12:53:37;9.60;99.90
9033;DHT22;4551;53.164;8.210;2023-03-01T12:56:08;9.80;99.90
9033;DHT22;4551;53.164;8.210;2023-03-01T12:58:39;10.00;99.90
9033;DHT22;4551;53.164;8.210;2023-03-01T13:01:20;10.20;99.90
9033;DHT22;4551;53.164;8.210;2023-03-01T13:06:40;10.70;99.90
9033;DHT22;4551;53.164;8.210;2023-03-01T13:09:13;11.00;99.90
9033;DHT22;4551;53.164;8.210;2023-03-01T13:11:43;11.20;99.90
9033;DHT22;4551;53.164;8.210;2023-03-01T13:17:00;11.40;99.90
9033;DHT22;4551;53.164;8.210;2023-03-01T13:19:29;11.90;99.90
9033;DHT22;4551;53.164;8.210;2023-03-01T13:21:58;12.00;99.90
9033;DHT22;4551;53.164;8.210;2023-03-01T13:24:27;12.30;99.90
9033;DHT22;4551;53.164;8.210;2023-03-01T13:27:20;12.50;99.90
9033;DHT22;4551;53.164;8.210;2023-03-01T13:29:51;12.50;99.90
9033;DHT22;4551;53.164;8.210;2023-03-01T13:32:21;12.60;99.90
9033;DHT22;4551;53.164;8.210;2023-03-01T13:37:50;13.00;99.90
9033;DHT22;4551;53.164;8.210;2023-03-01T13:45:50;13.80;99.90
9033;DHT22;4551;53.164;8.210;2023-03-01T13:48:22;14.00;99.90
9033;DHT22;4551;53.164;8.210;2023-03-01T13:50:53;14.20;99.90
9033;DHT22;4551;53.164;8.210;2023-03-01T13:53:22;14.50;99.90
9033;DHT22;4551;53.164;8.210;2023-03-01T13:55:52;14.50;99.90
9033;DHT22;4551;53.164;8.210;2023-03-01T13:58:28;14.60;99.90
9033;DHT22;4551;53.164;8.210;2023-03-01T14:00:59;14.80;99.90
9033;DHT22;4551;53.164;8.210;2023-03-01T14:03:28;15.00;99.90
9033;DHT22;4551;53.164;8.210;2023-03-01T14:05:58;14.80;99.90
9033;DHT22;4551;53.164;8.210;2023-03-01T14:08:39;14.80;99.90
9033;DHT22;4551;53.164;8.210;2023-03-01T14:14:03;14.90;99.90
9033;DHT22;4551;53.164;8.210;2023-03-01T14:16:38;15.30;99.90
9033;DHT22;4551;53.164;8.210;2023-03-01T14:19:15;15.00;99.90
9033;DHT22;4551;53.164;8.210;2023-03-01T14:21:58;14.80;99.90
9033;DHT22;4551;53.164;8.210;2023-03-01T14:24:29;14.90;99.90
9033;DHT22;4551;53.164;8.210;2023-03-01T14:27:00;15.00;99.90
9033;DHT22;4551;53.164;8.210;2023-03-01T14:29:34;15.00;99.90
9033;DHT22;4551;53.164;8.210;2023-03-01T14:32:17;15.00;99.90
9033;DHT22;4551;53.164;8.210;2023-03-01T14:34:49;15.10;99.90
9033;DHT22;4551;53.164;8.210;2023-03-01T14:37:19;15.10;99.90
9033;DHT22;4551;53.164;8.210;2023-03-01T14:39:47;15.10;99.90
9033;DHT22;4551;53.164;8.210;2023-03-01T14:42:15;15.10;99.90
9033;DHT22;4551;53.164;8.210;2023-03-01T14:44:44;15.00;99.90
9033;DHT22;4551;53.164;8.210;2023-03-01T14:47:15;14.90;99.90
9033;DHT22;4551;53.164;8.210;2023-03-01T14:49:46;14.70;99.90
9033;DHT22;4551;53.164;8.210;2023-03-01T14:52:18;14.60;99.90
9033;DHT22;4551;53.164;8.210;2023-03-01T14:54:51;14.60;99.90
9033;DHT22;4551;53.164;8.210;2023-03-01T14:57:20;14.50;99.90
9033;DHT22;4551;53.164;8.210;2023-03-01T14:59:50;14.40;99.90
9033;DHT22;4551;53.164;8.210;2023-03-01T15:02:21;14.40;99.90
9033;DHT22;4551;53.164;8.210;2023-03-01T15:04:51;14.20;99.90
9033;DHT22;4551;53.164;8.210;2023-03-01T15:07:19;14.10;99.90
9033;DHT22;4551;53.164;8.210;2023-03-01T15:09:48;14.10;99.90
9033;DHT22;4551;53.164;8.210;2023-03-01T15:12:32;14.00;99.90
9033;DHT22;4551;53.164;8.210;2023-03-01T15:15:08;13.90;99.90
9033;DHT22;4551;53.164;8.210;2023-03-01T15:17:50;13.70;99.90
9033;DHT22;4551;53.164;8.210;2023-03-01T15:20:19;13.70;99.90
9033;DHT22;4551;53.164;8.210;2023-03-01T15:22:48;13.70;99.90
9033;DHT22;4551;53.164;8.210;2023-03-01T15:25:16;13.70;99.90
9033;DHT22;4551;53.164;8.210;2023-03-01T15:27:45;13.60;99.90
9033;DHT22;4551;53.164;8.210;2023-03-01T15:30:16;13.60;99.90
9033;DHT22;4551;53.164;8.210;2023-03-01T15:32:45;13.60;99.90
9033;DHT22;4551;53.164;8.210;2023-03-01T15:38:28;13.30;99.90
9033;DHT22;4551;53.164;8.210;2023-03-01T15:40:59;13.20;99.90
9033;DHT22;4551;53.164;8.210;2023-03-01T15:43:37;13.20;99.90
9033;DHT22;4551;53.164;8.210;2023-03-01T15:46:11;13.20;99.90
9033;DHT22;4551;53.164;8.210;2023-03-01T15:48:43;13.20;99.90
9033;DHT22;4551;53.164;8.210;2023-03-01T15:51:12;13.10;99.90
9033;DHT22;4551;53.164;8.210;2023-03-01T15:53:42;13.00;99.90
9033;DHT22;4551;53.164;8.210;2023-03-01T15:56:20;13.00;99.90
9033;DHT22;4551;53.164;8.210;2023-03-01T15:58:48;12.70;99.90
9033;DHT22;4551;53.164;8.210;2023-03-01T16:01:16;12.60;99.90
9033;DHT22;4551;53.164;8.210;2023-03-01T16:03:44;13.10;99.90
9033;DHT22;4551;53.164;8.210;2023-03-01T16:06:13;12.60;99.90
9033;DHT22;4551;53.164;8.210;2023-03-01T16:08:42;12.50;99.90
9033;DHT22;4551;53.164;8.210;2023-03-01T16:11:14;12.40;99.90
9033;DHT22;4551;53.164;8.210;2023-03-01T16:13:43;12.20;99.90
9033;DHT22;4551;53.164;8.210;2023-03-01T16:16:11;12.20;99.90
9033;DHT22;4551;53.164;8.210;2023-03-01T16:18:42;12.10;99.90
9033;DHT22;4551;53.164;8.210;2023-03-01T16:21:14;12.00;99.90
9033;DHT22;4551;53.164;8.210;2023-03-01T16:23:44;11.70;99.90
9033;DHT22;4551;53.164;8.210;2023-03-01T16:26:12;11.50;99.90
9033;DHT22;4551;53.164;8.210;2023-03-01T16:28:41;11.30;99.90
9033;DHT22;4551;53.164;8.210;2023-03-01T16:31:09;11.10;99.90
9033;DHT22;4551;53.164;8.210;2023-03-01T16:33:38;11.00;99.90
9033;DHT22;4551;53.164;8.210;2023-03-01T16:36:06;10.80;99.90
9033;DHT22;4551;53.164;8.210;2023-03-01T16:38:35;10.70;99.90
9033;DHT22;4551;53.164;8.210;2023-03-01T16:41:06;10.50;99.90
9033;DHT22;4551;53.164;8.210;2023-03-01T16:43:38;10.40;99.90
9033;DHT22;4551;53.164;8.210;2023-03-01T16:46:10;10.20;99.90
9033;DHT22;4551;53.164;8.210;2023-03-01T16:48:41;10.10;99.90
9033;DHT22;4551;53.164;8.210;2023-03-01T16:51:09;10.00;99.90
9033;DHT22;4551;53.164;8.210;2023-03-01T16:53:37;9.80;99.90
9033;DHT22;4551;53.164;8.210;2023-03-01T16:56:12;9.60;99.90
9033;DHT22;4551;53.164;8.210;2023-03-01T16:58:43;9.40;99.90
9033;DHT22;4551;53.164;8.210;2023-03-01T17:01:12;9.30;99.90
9033;DHT22;4551;53.164;8.210;2023-03-01T17:03:40;9.10;99.90
9033;DHT22;4551;53.164;8.210;2023-03-01T17:06:09;9.00;99.90